Time;durP1;ratioP1;P1;durP2;ratioP2;P2;SDS_P1;SDS_P2;PMS_P1;PMS_P2;Temp;Humidity;BMP_temperature;BMP_pressure;BME280_temperature;BME280_humidity;BME280_pressure;Samples;Min_cycle;Max_cycle;Signal;HPM_P1;HPM_P2
2021/08/05 00:00:40;;;;;;;;;7.25;7.25;;;;;;;;5050763;28;8784;-86
2021/08/05 00:03:07;;;;;;;;;9.00;6.00;;;;;;;;4982736;28;9507;-84
2021/08/05 00:05:36;;;;;;;;;2.50;2.00;;;;;;;;4982502;28;8864;-85
2021/08/05 00:08:04;;;;;;;;;6.00;6.00;;;;;;;;4982945;28;8860;-84
2021/08/05 00:10:31;;;;;;;;;5.25;5.00;;;;;;;;4981841;28;8897;-86
2021/08/05 00:12:59;;;;;;;;;6.50;6.50;;;;;;;;4983290;28;8933;-85
2021/08/05 00:15:26;;;;;;;;;5.50;5.50;;;;;;;;4981822;28;8891;-85
2021/08/05 00:17:53;;;;;;;;;7.50;7.50;;;;;;;;4982918;28;8905;-85
2021/08/05 00:20:21;;;;;;;;;6.25;6.25;;;;;;;;4982343;28;9527;-84
2021/08/05 00:22:49;;;;;;;;;6.00;4.50;;;;;;;;4982968;28;8902;-85
2021/08/05 00:25:17;;;;;;;;;8.75;7.25;;;;;;;;4982863;28;8886;-85
2021/08/05 00:27:44;;;;;;;;;7.00;7.00;;;;;;;;4982109;28;8884;-85
2021/08/05 00:30:12;;;;;;;;;6.00;6.00;;;;;;;;4983067;28;8880;-85
2021/08/05 00:32:40;;;;;;;;;7.25;7.25;;;;;;;;4982340;28;9018;-84
2021/08/05 00:35:08;;;;;;;;;9.50;9.50;;;;;;;;4982786;28;8929;-86
2021/08/05 00:37:35;;;;;;;;;9.75;9.75;;;;;;;;4976951;28;8874;-86
2021/08/05 00:40:05;;;;;;;;;7.00;7.00;;;;;;;;4982855;28;8917;-86
2021/08/05 00:42:33;;;;;;;;;9.25;7.00;;;;;;;;4982377;28;8970;-85
2021/08/05 00:45:00;;;;;;;;;11.00;8.25;;;;;;;;4981643;28;8884;-85
2021/08/05 00:47:28;;;;;;;;;7.50;7.00;;;;;;;;4982676;28;9609;-86
2021/08/05 00:49:56;;;;;;;;;8.50;8.50;;;;;;;;4981582;28;8907;-85
2021/08/05 00:52:26;;;;;;;;;7.75;7.75;;;;;;;;4985404;28;8898;-85
2021/08/05 00:54:54;;;;;;;;;8.00;8.00;;;;;;;;4971057;28;9888;-85
2021/08/05 00:57:23;;;;;;;;;4.25;4.25;;;;;;;;4986129;28;8909;-85
2021/08/05 00:59:50;;;;;;;;;10.50;10.50;;;;;;;;5053614;28;8875;-85
2021/08/05 01:02:20;;;;;;;;;6.75;6.75;;;;;;;;4984772;28;8842;-84
2021/08/05 01:04:49;;;;;;;;;7.00;7.00;;;;;;;;4986077;28;8875;-86
2021/08/05 01:07:20;;;;;;;;;6.00;6.00;;;;;;;;4985263;28;8865;-85
2021/08/05 01:09:57;;;;;;;;;6.50;6.50;;;;;;;;4986022;28;8929;-85
2021/08/05 01:12:32;;;;;;;;;6.00;6.00;;;;;;;;4985165;28;8871;-86
2021/08/05 01:15:03;;;;;;;;;6.50;6.00;;;;;;;;4985190;28;8883;-87
2021/08/05 01:17:33;;;;;;;;;6.50;5.25;;;;;;;;4985973;28;8843;-85
2021/08/05 01:20:01;;;;;;;;;8.25;8.25;;;;;;;;4984332;28;8892;-84
2021/08/05 01:22:35;;;;;;;;;7.75;7.75;;;;;;;;5053776;28;8965;-86
2021/08/05 01:25:07;;;;;;;;;6.50;6.50;;;;;;;;4984577;28;8913;-85
2021/08/05 01:27:36;;;;;;;;;6.00;6.00;;;;;;;;5052706;28;9635;-85
2021/08/05 01:30:06;;;;;;;;;7.75;7.75;;;;;;;;5052765;28;8876;-85
2021/08/05 01:32:33;;;;;;;;;6.00;6.00;;;;;;;;4985470;28;8892;-85
2021/08/05 01:35:01;;;;;;;;;7.00;7.00;;;;;;;;4985614;28;8876;-86
2021/08/05 01:37:29;;;;;;;;;6.00;6.00;;;;;;;;4979644;28;8884;-85
2021/08/05 01:39:56;;;;;;;;;5.25;5.25;;;;;;;;4986600;28;8970;-86
2021/08/05 01:42:24;;;;;;;;;4.50;4.50;;;;;;;;4984411;28;8953;-87
2021/08/05 01:44:53;;;;;;;;;7.25;7.00;;;;;;;;4985927;28;8933;-85
2021/08/05 01:47:21;;;;;;;;;5.00;5.00;;;;;;;;4985199;28;8892;-86
2021/08/05 01:49:48;;;;;;;;;6.00;6.00;;;;;;;;4984969;28;8887;-86
2021/08/05 01:52:17;;;;;;;;;8.25;7.00;;;;;;;;4985703;28;9007;-86
2021/08/05 01:54:45;;;;;;;;;6.50;6.50;;;;;;;;4983847;28;8891;-84
2021/08/05 01:57:13;;;;;;;;;6.00;6.00;;;;;;;;4985947;28;8879;-85
2021/08/05 01:59:41;;;;;;;;;6.75;6.25;;;;;;;;4984772;28;9671;-86
2021/08/05 02:02:10;;;;;;;;;6.00;6.00;;;;;;;;4984699;28;8854;-85
2021/08/05 02:04:51;;;;;;;;;7.75;7.75;;;;;;;;4984164;28;8871;-85
2021/08/05 02:07:23;;;;;;;;;5.50;5.50;;;;;;;;4984490;28;8863;-86
2021/08/05 02:10:00;;;;;;;;;5.25;5.25;;;;;;;;4984859;28;8875;-86
2021/08/05 02:12:31;;;;;;;;;6.00;6.00;;;;;;;;4984397;28;8918;-86
2021/08/05 02:14:59;;;;;;;;;7.25;6.50;;;;;;;;4993617;28;8991;-85
2021/08/05 02:17:30;;;;;;;;;7.00;7.00;;;;;;;;4984391;28;8871;-84
2021/08/05 02:20:09;;;;;;;;;5.00;5.00;;;;;;;;4983808;28;8929;-85
2021/08/05 02:22:44;;;;;;;;;7.75;6.50;;;;;;;;4983766;28;8929;-86
2021/08/05 02:25:14;;;;;;;;;7.25;7.25;;;;;;;;4983005;28;8883;-84
2021/08/05 02:27:43;;;;;;;;;6.00;6.00;;;;;;;;4984360;28;8922;-84
2021/08/05 02:30:11;;;;;;;;;6.00;6.00;;;;;;;;4983531;28;8883;-86
2021/08/05 02:32:41;;;;;;;;;8.00;8.00;;;;;;;;4985067;28;8968;-86
2021/08/05 02:35:11;;;;;;;;;7.00;7.00;;;;;;;;4984303;28;8871;-84
2021/08/05 02:37:38;;;;;;;;;6.75;5.50;;;;;;;;4978634;28;8949;-84
2021/08/05 02:40:08;;;;;;;;;6.67;6.67;;;;;;;;4984733;28;8859;-87
2021/08/05 02:42:36;;;;;;;;;12.00;12.00;;;;;;;;4983555;28;8900;-86
2021/08/05 02:45:03;;;;;;;;;12.25;8.75;;;;;;;;4984813;28;8905;-87
2021/08/05 02:47:30;;;;;;;;;8.50;7.00;;;;;;;;4983390;28;8917;-86
2021/08/05 02:50:01;;;;;;;;;12.25;11.00;;;;;;;;4975616;28;9006;-86
2021/08/05 02:52:28;;;;;;;;;12.00;11.75;;;;;;;;4984126;28;8921;-85
2021/08/05 02:54:56;;;;;;;;;11.50;8.00;;;;;;;;4983919;28;9342;-85
2021/08/05 02:57:23;;;;;;;;;8.25;8.25;;;;;;;;4984550;28;8897;-85
2021/08/05 02:59:51;;;;;;;;;8.25;8.25;;;;;;;;4983994;28;8891;-86
2021/08/05 03:02:18;;;;;;;;;9.50;9.50;;;;;;;;4984198;28;8832;-86
2021/08/05 03:04:47;;;;;;;;;11.75;9.75;;;;;;;;4983831;28;8965;-86
2021/08/05 03:07:16;;;;;;;;;14.25;11.75;;;;;;;;5051429;28;8860;-85
2021/08/05 03:09:43;;;;;;;;;11.00;9.50;;;;;;;;4983917;28;8899;-84
2021/08/05 03:12:10;;;;;;;;;10.25;7.75;;;;;;;;4984044;28;8895;-86
2021/08/05 03:14:37;;;;;;;;;12.00;10.75;;;;;;;;4982809;28;8863;-86
2021/08/05 03:17:05;;;;;;;;;8.75;8.75;;;;;;;;4983522;28;8886;-86
2021/08/05 03:19:32;;;;;;;;;11.00;11.00;;;;;;;;4983969;28;8868;-86
2021/08/05 03:21:59;;;;;;;;;12.00;12.00;;;;;;;;4983816;28;8917;-86
2021/08/05 03:24:28;;;;;;;;;15.00;13.00;;;;;;;;4984371;28;8879;-87
2021/08/05 03:26:56;;;;;;;;;10.50;10.50;;;;;;;;4983333;28;8888;-86
2021/08/05 03:29:23;;;;;;;;;8.50;8.00;;;;;;;;4983711;28;8896;-86
2021/08/05 03:31:50;;;;;;;;;11.00;9.50;;;;;;;;4983656;28;8849;-86
2021/08/05 03:34:17;;;;;;;;;10.00;10.00;;;;;;;;4983339;28;8929;-86
2021/08/05 03:36:44;;;;;;;;;11.50;10.75;;;;;;;;4983959;28;8855;-86
2021/08/05 03:39:12;;;;;;;;;7.25;7.25;;;;;;;;4982993;28;8867;-86
2021/08/05 03:41:40;;;;;;;;;10.25;7.00;;;;;;;;5050738;28;9625;-86
2021/08/05 03:44:08;;;;;;;;;11.75;11.75;;;;;;;;4982984;28;8902;-85
2021/08/05 03:46:35;;;;;;;;;23.25;21.00;;;;;;;;4983582;28;9057;-86
2021/08/05 03:49:02;;;;;;;;;11.75;11.75;;;;;;;;4983367;28;8897;-86
2021/08/05 03:51:30;;;;;;;;;12.25;11.50;;;;;;;;4983060;28;8883;-85
2021/08/05 03:53:57;;;;;;;;;8.00;8.00;;;;;;;;4983712;28;8871;-86
2021/08/05 03:56:24;;;;;;;;;12.00;12.00;;;;;;;;4982650;28;8883;-86
2021/08/05 03:58:53;;;;;;;;;9.50;9.50;;;;;;;;4983472;28;8887;-86
2021/08/05 04:01:21;;;;;;;;;9.25;9.25;;;;;;;;5048962;28;8807;-86
2021/08/05 04:03:48;;;;;;;;;10.50;10.50;;;;;;;;4983337;28;8895;-85
2021/08/05 04:06:15;;;;;;;;;11.75;11.75;;;;;;;;4983265;28;8891;-85
2021/08/05 04:08:42;;;;;;;;;13.00;12.25;;;;;;;;4982715;28;8895;-85
2021/08/05 04:11:10;;;;;;;;;13.50;12.25;;;;;;;;4983667;28;8921;-85
2021/08/05 04:13:37;;;;;;;;;14.00;12.00;;;;;;;;4982738;28;8875;-85
2021/08/05 04:16:07;;;;;;;;;13.50;12.25;;;;;;;;4983150;28;8921;-86
2021/08/05 04:18:35;;;;;;;;;15.00;15.00;;;;;;;;4981572;28;8871;-85
2021/08/05 04:21:02;;;;;;;;;11.50;11.50;;;;;;;;4983611;28;8906;-85
2021/08/05 04:23:29;;;;;;;;;10.25;8.50;;;;;;;;4982897;28;8902;-85
2021/08/05 04:25:58;;;;;;;;;11.00;10.75;;;;;;;;4982329;28;9004;-85
2021/08/05 04:28:25;;;;;;;;;9.50;9.50;;;;;;;;4983012;28;8882;-86
2021/08/05 04:30:53;;;;;;;;;14.00;12.50;;;;;;;;4982298;28;8811;-85
2021/08/05 04:33:21;;;;;;;;;13.00;8.25;;;;;;;;4983376;28;8884;-86
2021/08/05 04:35:48;;;;;;;;;8.75;6.75;;;;;;;;4981751;28;8871;-86
2021/08/05 04:38:16;;;;;;;;;9.25;8.25;;;;;;;;4978653;28;8899;-85
2021/08/05 04:40:43;;;;;;;;;7.75;7.75;;;;;;;;4982141;28;9034;-86
2021/08/05 04:43:10;;;;;;;;;6.00;6.00;;;;;;;;4982929;28;8891;-86
2021/08/05 04:45:38;;;;;;;;;8.25;8.25;;;;;;;;4982610;28;8978;-86
2021/08/05 04:48:07;;;;;;;;;8.00;8.00;;;;;;;;4982588;28;8937;-84
2021/08/05 04:50:37;;;;;;;;;8.75;8.75;;;;;;;;4982795;28;8887;-86
2021/08/05 04:53:06;;;;;;;;;16.00;13.00;;;;;;;;4981770;28;8884;-85
2021/08/05 04:55:33;;;;;;;;;13.00;12.00;;;;;;;;4982559;28;8931;-86
2021/08/05 04:58:02;;;;;;;;;12.75;11.00;;;;;;;;4982120;28;8883;-84
2021/08/05 05:00:31;;;;;;;;;15.00;13.00;;;;;;;;4982157;28;9695;-86
2021/08/05 05:02:59;;;;;;;;;14.25;12.25;;;;;;;;4982426;28;8867;-86
2021/08/05 05:05:27;;;;;;;;;12.00;12.00;;;;;;;;4982096;28;8891;-85
2021/08/05 05:07:58;;;;;;;;;11.50;11.50;;;;;;;;5049872;28;8876;-86
2021/08/05 05:10:26;;;;;;;;;11.00;10.00;;;;;;;;4981512;28;9042;-85
2021/08/05 05:12:53;;;;;;;;;11.00;11.00;;;;;;;;4982898;28;8921;-85
2021/08/05 05:15:20;;;;;;;;;17.00;13.25;;;;;;;;4981431;28;8871;-85
2021/08/05 05:17:48;;;;;;;;;15.50;15.50;;;;;;;;4982970;28;8883;-85
2021/08/05 05:20:15;;;;;;;;;14.75;13.00;;;;;;;;4982233;28;8902;-85
2021/08/05 05:22:43;;;;;;;;;12.50;12.50;;;;;;;;4982510;28;8883;-86
2021/08/05 05:25:13;;;;;;;;;12.00;10.50;;;;;;;;5049489;28;8879;-86
2021/08/05 05:27:42;;;;;;;;;12.50;12.25;;;;;;;;4981538;28;8875;-86
2021/08/05 05:30:10;;;;;;;;;11.25;10.25;;;;;;;;5049449;28;8889;-86
2021/08/05 05:32:39;;;;;;;;;15.50;14.00;;;;;;;;4981642;28;8883;-85
2021/08/05 05:35:07;;;;;;;;;16.50;15.00;;;;;;;;4982337;28;8947;-85
2021/08/05 05:37:35;;;;;;;;;15.50;12.25;;;;;;;;4982231;28;8890;-86
2021/08/05 05:40:02;;;;;;;;;11.75;11.75;;;;;;;;4991207;28;9660;-84
2021/08/05 05:42:31;;;;;;;;;16.75;16.75;;;;;;;;5051824;28;8876;-86
2021/08/05 05:44:59;;;;;;;;;15.00;13.75;;;;;;;;4983736;28;9661;-86
2021/08/05 05:47:26;;;;;;;;;14.00;14.00;;;;;;;;4985869;28;8875;-87
2021/08/05 05:49:54;;;;;;;;;15.50;15.50;;;;;;;;4984163;28;8909;-85
2021/08/05 05:52:21;;;;;;;;;17.75;15.50;;;;;;;;4985403;28;8911;-86
2021/08/05 05:54:48;;;;;;;;;17.00;15.50;;;;;;;;4985702;28;8926;-85
2021/08/05 05:57:16;;;;;;;;;25.75;21.75;;;;;;;;4984956;28;9641;-85
2021/08/05 05:59:44;;;;;;;;;15.00;14.50;;;;;;;;4985688;28;8876;-85
2021/08/05 06:02:12;;;;;;;;;17.50;16.00;;;;;;;;4983909;28;8830;-86
2021/08/05 06:04:39;;;;;;;;;15.00;15.00;;;;;;;;4985672;28;8863;-83
2021/08/05 06:07:06;;;;;;;;;18.25;17.00;;;;;;;;4983938;28;8891;-85
2021/08/05 06:09:33;;;;;;;;;15.75;15.75;;;;;;;;4985254;28;8875;-84
2021/08/05 06:12:01;;;;;;;;;17.75;16.00;;;;;;;;4984699;28;8880;-84
2021/08/05 06:14:28;;;;;;;;;18.50;18.25;;;;;;;;5051026;28;8898;-83
2021/08/05 06:16:57;;;;;;;;;18.00;15.25;;;;;;;;5051303;28;8867;-81
2021/08/05 06:19:25;;;;;;;;;15.25;15.25;;;;;;;;5050248;28;8875;-82
2021/08/05 06:21:52;;;;;;;;;20.00;17.00;;;;;;;;5051683;28;8935;-83
2021/08/05 06:24:19;;;;;;;;;15.50;15.25;;;;;;;;5050656;28;8875;-83
2021/08/05 06:26:48;;;;;;;;;13.25;10.25;;;;;;;;4984566;28;8867;-82
2021/08/05 06:29:16;;;;;;;;;16.00;16.00;;;;;;;;5055182;28;8999;-82
2021/08/05 06:31:43;;;;;;;;;16.75;16.75;;;;;;;;4984279;28;8827;-83
2021/08/05 06:34:12;;;;;;;;;16.75;16.75;;;;;;;;4984583;28;8887;-85
2021/08/05 06:36:39;;;;;;;;;20.75;20.75;;;;;;;;4984213;28;9010;-86
2021/08/05 06:39:07;;;;;;;;;19.25;15.25;;;;;;;;4985049;28;8844;-91
2021/08/05 06:41:34;;;;;;;;;21.75;20.00;;;;;;;;4984409;28;8856;-93
2021/08/05 06:44:01;;;;;;;;;17.25;17.25;;;;;;;;4984321;28;8872;-88
2021/08/05 06:46:30;;;;;;;;;15.50;15.50;;;;;;;;4983967;28;8868;-88
2021/08/05 06:48:57;;;;;;;;;14.75;14.00;;;;;;;;4986910;28;8883;-89
2021/08/05 06:51:26;;;;;;;;;20.75;19.75;;;;;;;;4983437;28;8898;-84
2021/08/05 06:53:53;;;;;;;;;16.25;16.25;;;;;;;;4983775;28;8879;-86
2021/08/05 06:56:25;;;;;;;;;22.25;20.50;;;;;;;;4984975;28;8855;-85
2021/08/05 06:58:52;;;;;;;;;19.25;16.50;;;;;;;;4980626;28;8890;-86
2021/08/05 07:01:19;;;;;;;;;14.25;14.25;;;;;;;;4983563;28;8824;-85
2021/08/05 07:03:46;;;;;;;;;18.00;18.00;;;;;;;;4983052;28;8892;-86
2021/08/05 07:06:14;;;;;;;;;16.00;15.00;;;;;;;;5051026;28;8907;-86
2021/08/05 07:08:43;;;;;;;;;16.25;16.25;;;;;;;;5047359;28;8903;-87
2021/08/05 07:11:10;;;;;;;;;19.75;19.75;;;;;;;;4977987;28;8928;-87
2021/08/05 07:13:37;;;;;;;;;17.25;17.25;;;;;;;;4983086;28;8844;-85
2021/08/05 07:16:05;;;;;;;;;15.75;14.50;;;;;;;;4979919;28;8895;-86
2021/08/05 07:18:32;;;;;;;;;14.25;14.25;;;;;;;;4983641;28;8863;-85
2021/08/05 07:21:00;;;;;;;;;20.75;17.75;;;;;;;;4984597;28;8883;-88
2021/08/05 07:23:28;;;;;;;;;16.50;15.75;;;;;;;;4983984;28;8968;-85
2021/08/05 07:25:56;;;;;;;;;15.00;15.00;;;;;;;;5048880;28;8878;-82
2021/08/05 07:28:24;;;;;;;;;15.75;15.75;;;;;;;;5045548;28;8904;-84
2021/08/05 07:30:52;;;;;;;;;14.50;14.50;;;;;;;;5046254;28;8810;-83
2021/08/05 07:33:20;;;;;;;;;16.75;15.00;;;;;;;;4981994;28;8912;-86
2021/08/05 07:35:47;;;;;;;;;14.00;14.00;;;;;;;;4980627;28;8835;-84
2021/08/05 07:38:16;;;;;;;;;14.50;13.50;;;;;;;;5003565;28;8863;-86
2021/08/05 07:40:44;;;;;;;;;18.00;18.00;;;;;;;;4983444;28;8982;-86
2021/08/05 07:43:19;;;;;;;;;32.50;31.50;;;;;;;;5048600;28;8903;-87
2021/08/05 07:45:46;;;;;;;;;29.50;28.75;;;;;;;;4983594;28;8919;-84
2021/08/05 07:48:13;;;;;;;;;36.00;31.75;;;;;;;;4982817;28;8887;-84
2021/08/05 07:50:41;;;;;;;;;36.75;32.25;;;;;;;;4982197;28;8871;-84
2021/08/05 07:53:08;;;;;;;;;28.75;28.00;;;;;;;;4983360;28;8891;-83
2021/08/05 07:55:35;;;;;;;;;40.25;31.75;;;;;;;;4995131;28;8888;-82
2021/08/05 07:58:03;;;;;;;;;36.75;32.75;;;;;;;;4982669;28;8879;-83
2021/08/05 08:00:35;;;;;;;;;33.25;31.25;;;;;;;;4981074;28;8884;-84
2021/08/05 08:03:02;;;;;;;;;36.25;33.00;;;;;;;;5046650;28;8892;-85
2021/08/05 08:05:29;;;;;;;;;37.00;33.75;;;;;;;;4980129;28;8898;-86
2021/08/05 08:07:56;;;;;;;;;36.25;31.50;;;;;;;;4979922;28;8876;-87
2021/08/05 08:10:24;;;;;;;;;38.25;34.50;;;;;;;;4980706;28;8878;-88
2021/08/05 08:12:54;;;;;;;;;39.50;34.50;;;;;;;;5049082;28;8863;-86
2021/08/05 08:15:25;;;;;;;;;33.00;30.25;;;;;;;;4981750;28;9602;-87
2021/08/05 08:17:54;;;;;;;;;40.25;35.75;;;;;;;;4979274;28;8945;-86
2021/08/05 08:20:23;;;;;;;;;41.50;36.50;;;;;;;;4993078;28;8890;-87
2021/08/05 08:22:51;;;;;;;;;40.50;35.25;;;;;;;;4981543;28;8844;-86
2021/08/05 08:25:18;;;;;;;;;41.75;36.00;;;;;;;;4981968;28;8876;-88
2021/08/05 08:27:46;;;;;;;;;39.50;35.75;;;;;;;;4984317;28;8870;-87
2021/08/05 08:30:14;;;;;;;;;36.00;33.75;;;;;;;;4979841;28;8878;-88
2021/08/05 08:44:07;;;;;;;;;26.00;26.00;;;;;;;;4970823;28;8864;-84
2021/08/05 08:46:35;;;;;;;;;22.00;20.50;;;;;;;;4922207;29;8874;-84
2021/08/05 08:49:04;;;;;;;;;17.50;17.50;;;;;;;;4952894;28;8862;-84
2021/08/05 08:51:33;;;;;;;;;16.75;15.50;;;;;;;;4958650;28;8896;-83
2021/08/05 08:54:03;;;;;;;;;12.25;12.25;;;;;;;;4961446;28;8862;-85
2021/08/05 08:56:33;;;;;;;;;13.20;12.80;;;;;;;;4944057;28;8906;-84
2021/08/05 08:59:01;;;;;;;;;11.40;11.40;;;;;;;;4960075;28;8940;-84
2021/08/05 09:01:31;;;;;;;;;17.00;17.00;;;;;;;;4961280;28;8836;-84
2021/08/05 09:03:58;;;;;;;;;13.00;12.80;;;;;;;;4962861;28;8916;-85
2021/08/05 09:06:25;;;;;;;;;8.00;8.00;;;;;;;;4961611;28;8882;-84
2021/08/05 09:08:53;;;;;;;;;13.60;13.60;;;;;;;;4959815;28;8955;-85
2021/08/05 09:11:20;;;;;;;;;12.00;11.60;;;;;;;;4962157;28;8831;-84
2021/08/05 09:13:47;;;;;;;;;14.00;12.40;;;;;;;;4964518;28;8854;-85
2021/08/05 09:16:28;;;;;;;;;13.80;12.00;;;;;;;;4965289;28;8900;-85
2021/08/05 09:19:08;;;;;;;;;11.00;11.00;;;;;;;;4965627;28;8989;-86
2021/08/05 09:21:35;;;;;;;;;10.20;10.20;;;;;;;;4966385;28;8874;-84
2021/08/05 09:24:05;;;;;;;;;10.00;10.00;;;;;;;;4964868;28;8984;-83
2021/08/05 09:26:34;;;;;;;;;10.20;10.20;;;;;;;;4965253;28;8854;-85
2021/08/05 09:29:13;;;;;;;;;10.00;10.00;;;;;;;;4965902;28;8981;-86
2021/08/05 09:31:44;;;;;;;;;7.40;7.40;;;;;;;;4960592;28;8823;-86
2021/08/05 09:34:15;;;;;;;;;10.20;10.20;;;;;;;;4964547;28;8904;-86
2021/08/05 09:36:46;;;;;;;;;9.20;9.20;;;;;;;;4963234;28;8863;-86
2021/08/05 10:15:56;;;;;;;;;7.80;7.80;;;;;;;;5051475;23;8893;-87
2021/08/05 10:18:29;;;;;;;;;10.80;9.40;;;;;;;;5018554;28;8868;-85
2021/08/05 10:20:57;;;;;;;;;8.00;8.00;;;;;;;;5025520;28;8857;-86
2021/08/05 10:23:26;;;;;;;;;5.20;5.20;;;;;;;;5022254;28;8877;-85
2021/08/05 10:25:55;;;;;;;;;7.60;7.60;;;;;;;;5024213;28;8892;-86
2021/08/05 10:28:23;;;;;;;;;11.00;9.20;;;;;;;;5026578;28;9519;-88
2021/08/05 10:30:53;;;;;;;;;11.20;11.20;;;;;;;;5023915;28;8817;-87
2021/08/05 10:36:21;;;;;;;;;7.00;7.00;;;;;;;;5451581;23;8895;-92
2021/08/05 10:38:49;;;;;;;;;9.40;8.40;;;;;;;;5010911;28;8959;-91
2021/08/05 10:41:19;;;;;;;;;9.80;8.80;;;;;;;;5021485;28;8868;-90
2021/08/05 10:43:47;;;;;;;;;8.80;8.80;;;;;;;;4998797;28;8892;-95
2021/08/05 10:46:15;;;;;;;;;8.20;7.20;;;;;;;;5027520;28;8895;-86
2021/08/05 10:48:43;;;;;;;;;6.80;6.80;;;;;;;;5025709;28;8873;-87
2021/08/05 10:51:11;;;;;;;;;9.20;7.40;;;;;;;;5026137;28;8856;-86
2021/08/05 10:53:45;;;;;;;;;6.80;6.80;;;;;;;;5023156;28;8837;-86
2021/08/05 10:56:21;;;;;;;;;7.60;7.60;;;;;;;;5008170;28;8872;-87
2021/08/05 10:59:10;;;;;;;;;5.60;5.60;;;;;;;;5024323;28;8865;-87
2021/08/05 11:01:49;;;;;;;;;6.80;6.80;;;;;;;;5022079;28;9622;-87
2021/08/05 11:04:45;;;;;;;;;5.80;5.80;;;;;;;;5025782;28;8912;-87
2021/08/05 11:07:27;;;;;;;;;9.60;7.80;;;;;;;;5015215;28;9634;-86
2021/08/05 11:10:24;;;;;;;;;6.60;6.60;;;;;;;;5025423;28;8879;-85
2021/08/05 11:12:54;;;;;;;;;5.60;5.60;;;;;;;;5029698;28;8896;-85
2021/08/05 11:15:44;;;;;;;;;4.60;4.60;;;;;;;;5008867;28;8856;-86
2021/08/05 11:18:19;;;;;;;;;6.60;6.60;;;;;;;;5025588;28;8881;-86
2021/08/05 11:20:47;;;;;;;;;5.20;5.20;;;;;;;;5026151;28;8892;-85
2021/08/05 11:23:40;;;;;;;;;4.20;3.00;;;;;;;;5025486;28;8919;-85
2021/08/05 11:26:11;;;;;;;;;5.00;5.00;;;;;;;;5022749;28;8877;-87
2021/08/05 11:28:49;;;;;;;;;4.80;4.80;;;;;;;;5022045;28;8868;-87
2021/08/05 11:31:28;;;;;;;;;6.40;4.80;;;;;;;;5018307;28;8829;-87
2021/08/05 11:33:56;;;;;;;;;6.00;6.00;;;;;;;;5025359;28;9004;-88
2021/08/05 11:36:33;;;;;;;;;3.80;3.80;;;;;;;;5023592;28;8849;-86
2021/08/05 11:39:12;;;;;;;;;4.80;4.40;;;;;;;;5023651;28;8880;-87
2021/08/05 11:41:52;;;;;;;;;4.40;4.20;;;;;;;;5025571;28;8845;-85
2021/08/05 11:44:28;;;;;;;;;5.40;5.40;;;;;;;;5020847;28;8868;-88
2021/08/05 11:47:22;;;;;;;;;6.20;6.20;;;;;;;;5016323;28;8896;-88
2021/08/05 11:49:52;;;;;;;;;5.40;5.40;;;;;;;;5023642;28;8882;-87
2021/08/05 11:52:21;;;;;;;;;4.80;4.80;;;;;;;;5023716;28;8883;-87
2021/08/05 11:54:50;;;;;;;;;7.40;7.40;;;;;;;;5008804;28;9652;-89
2021/08/05 11:57:20;;;;;;;;;7.60;6.20;;;;;;;;5024821;28;8892;-88
2021/08/05 11:59:49;;;;;;;;;3.80;3.80;;;;;;;;5023425;28;9647;-88
2021/08/05 12:02:18;;;;;;;;;4.60;4.60;;;;;;;;5014907;28;8947;-87
2021/08/05 12:04:46;;;;;;;;;5.80;5.80;;;;;;;;5011815;28;8873;-87
2021/08/05 12:07:21;;;;;;;;;5.80;4.00;;;;;;;;5024613;28;8893;-88
2021/08/05 12:10:08;;;;;;;;;5.00;5.00;;;;;;;;5023791;28;8881;-87
2021/08/05 12:12:43;;;;;;;;;4.40;4.40;;;;;;;;5024316;28;8884;-87
2021/08/05 12:15:12;;;;;;;;;5.40;5.00;;;;;;;;5023373;28;8883;-88
2021/08/05 12:17:48;;;;;;;;;6.40;6.40;;;;;;;;5013021;28;8891;-88
2021/08/05 12:20:21;;;;;;;;;7.20;6.00;;;;;;;;5024767;28;8898;-88
2021/08/05 12:22:51;;;;;;;;;7.20;5.80;;;;;;;;5011900;28;8864;-87
2021/08/05 12:25:39;;;;;;;;;3.80;3.80;;;;;;;;5025729;28;8873;-87
2021/08/05 12:28:10;;;;;;;;;4.80;4.80;;;;;;;;5013620;28;8873;-86
2021/08/05 12:30:41;;;;;;;;;5.80;5.80;;;;;;;;5023404;28;8781;-87
2021/08/05 12:33:11;;;;;;;;;4.80;4.80;;;;;;;;5024718;28;9503;-88
2021/08/05 12:35:40;;;;;;;;;4.80;4.80;;;;;;;;5024864;28;8982;-86
2021/08/05 12:38:10;;;;;;;;;3.20;3.20;;;;;;;;5011566;28;8890;-86
2021/08/05 12:40:41;;;;;;;;;6.00;5.20;;;;;;;;5003428;28;8877;-87
2021/08/05 12:43:12;;;;;;;;;6.00;6.00;;;;;;;;5017199;28;8873;-87
2021/08/05 12:45:41;;;;;;;;;4.00;4.00;;;;;;;;5006753;28;8857;-86
2021/08/05 12:48:10;;;;;;;;;5.00;5.00;;;;;;;;5030811;28;9675;-87
2021/08/05 12:50:41;;;;;;;;;6.40;6.40;;;;;;;;5010136;28;8857;-86
2021/08/05 12:53:09;;;;;;;;;5.60;5.60;;;;;;;;5017860;28;8871;-85
2021/08/05 12:55:53;;;;;;;;;4.60;4.60;;;;;;;;5023384;28;9373;-86
2021/08/05 13:01:20;;;;;;;;;6.20;6.20;;;;;;;;4961032;28;8973;-87
2021/08/05 13:03:49;;;;;;;;;5.80;5.80;;;;;;;;5022361;28;8847;-86
2021/08/05 13:06:16;;;;;;;;;6.00;5.60;;;;;;;;5027403;28;8881;-86
2021/08/05 13:08:45;;;;;;;;;6.00;6.00;;;;;;;;5021744;28;8883;-87
2021/08/05 13:11:14;;;;;;;;;6.00;6.00;;;;;;;;5027760;28;8910;-86
2021/08/05 13:13:45;;;;;;;;;5.00;5.00;;;;;;;;5031758;28;9011;-86
2021/08/05 13:16:20;;;;;;;;;5.00;5.00;;;;;;;;5024710;28;8859;-87
2021/08/05 13:19:09;;;;;;;;;4.00;3.60;;;;;;;;5018801;28;9006;-87
2021/08/05 13:21:51;;;;;;;;;4.80;4.80;;;;;;;;5017379;28;8888;-87
2021/08/05 13:24:20;;;;;;;;;2.80;2.80;;;;;;;;5030320;28;8967;-84
2021/08/05 13:26:48;;;;;;;;;5.00;5.00;;;;;;;;5031391;28;8873;-86
2021/08/05 13:29:36;;;;;;;;;5.00;3.40;;;;;;;;5017004;28;8927;-86
2021/08/05 13:32:04;;;;;;;;;4.20;3.60;;;;;;;;5017194;28;8926;-87
2021/08/05 13:34:32;;;;;;;;;4.80;4.60;;;;;;;;5030484;28;8864;-86
2021/08/05 13:36:59;;;;;;;;;4.20;4.20;;;;;;;;5033119;28;8969;-86
2021/08/05 13:39:46;;;;;;;;;3.80;3.80;;;;;;;;5031760;28;8865;-86
2021/08/05 13:42:14;;;;;;;;;5.40;5.40;;;;;;;;5025243;28;8863;-89
2021/08/05 13:44:44;;;;;;;;;5.20;5.20;;;;;;;;5023979;28;8873;-86
2021/08/05 13:47:11;;;;;;;;;2.80;2.80;;;;;;;;5024602;28;8879;-86
2021/08/05 13:49:39;;;;;;;;;3.00;3.00;;;;;;;;5023483;28;8938;-87
2021/08/05 13:52:07;;;;;;;;;3.60;3.60;;;;;;;;5030562;28;8889;-86
2021/08/05 13:54:34;;;;;;;;;2.20;2.20;;;;;;;;5030008;28;8872;-86
2021/08/05 13:57:04;;;;;;;;;4.00;4.00;;;;;;;;5024377;28;8997;-86
2021/08/05 13:59:33;;;;;;;;;4.40;4.40;;;;;;;;5006622;28;8878;-86
2021/08/05 14:02:02;;;;;;;;;3.60;3.60;;;;;;;;5009730;28;9575;-86
2021/08/05 14:04:29;;;;;;;;;4.80;4.20;;;;;;;;5013684;28;8923;-87
2021/08/05 14:06:57;;;;;;;;;3.80;3.80;;;;;;;;5009619;28;8896;-86
2021/08/05 14:09:26;;;;;;;;;6.80;3.80;;;;;;;;5026802;28;9628;-87
2021/08/05 14:11:54;;;;;;;;;2.60;2.60;;;;;;;;5027252;28;8912;-86
2021/08/05 14:14:21;;;;;;;;;3.00;2.00;;;;;;;;5027604;28;8860;-86
2021/08/05 14:16:49;;;;;;;;;3.20;3.20;;;;;;;;5026926;28;8877;-86
2021/08/05 14:19:19;;;;;;;;;3.20;2.00;;;;;;;;5027796;28;10124;-85
2021/08/05 14:21:48;;;;;;;;;3.00;3.00;;;;;;;;5016490;28;8902;-87
2021/08/05 14:24:16;;;;;;;;;1.80;1.80;;;;;;;;5025239;28;8873;-86
2021/08/05 14:26:44;;;;;;;;;2.20;2.20;;;;;;;;5016443;28;8843;-86
2021/08/05 14:29:12;;;;;;;;;2.20;2.20;;;;;;;;5024539;28;8861;-86
2021/08/05 14:31:40;;;;;;;;;2.20;2.20;;;;;;;;5026489;28;8797;-86
2021/08/05 14:34:07;;;;;;;;;2.60;2.60;;;;;;;;5026622;28;8880;-88
2021/08/05 14:36:36;;;;;;;;;2.80;2.80;;;;;;;;5018278;28;8894;-86
2021/08/05 14:39:05;;;;;;;;;3.80;3.80;;;;;;;;5022211;28;8877;-87
2021/08/05 14:41:33;;;;;;;;;1.60;1.60;;;;;;;;5027495;28;8872;-88
2021/08/05 14:44:01;;;;;;;;;2.60;2.60;;;;;;;;4996367;28;8894;-87
2021/08/05 14:46:28;;;;;;;;;2.20;2.20;;;;;;;;5013570;28;8866;-87
2021/08/05 14:48:57;;;;;;;;;4.60;4.60;;;;;;;;5014079;28;8893;-87
2021/08/05 14:51:25;;;;;;;;;1.40;1.40;;;;;;;;5013055;28;8973;-87
2021/08/05 14:53:54;;;;;;;;;4.80;3.00;;;;;;;;5019754;28;9647;-85
2021/08/05 14:56:22;;;;;;;;;1.60;1.60;;;;;;;;5008351;28;8898;-86
2021/08/05 15:01:35;;;;;;;;;1.00;1.00;;;;;;;;4999523;28;8907;-88
2021/08/05 15:04:03;;;;;;;;;2.80;2.80;;;;;;;;5026515;28;8869;-86
2021/08/05 15:06:31;;;;;;;;;2.60;2.60;;;;;;;;5013458;28;8904;-87
2021/08/05 15:09:00;;;;;;;;;1.80;1.80;;;;;;;;5014047;28;8863;-89
2021/08/05 15:11:28;;;;;;;;;2.00;2.00;;;;;;;;5026048;28;8873;-87
2021/08/05 15:13:55;;;;;;;;;1.00;1.00;;;;;;;;5017008;28;9422;-86
2021/08/05 15:16:22;;;;;;;;;3.80;2.20;;;;;;;;5026481;28;8943;-88
2021/08/05 15:18:50;;;;;;;;;3.80;1.80;;;;;;;;5009451;28;8890;-87
2021/08/05 15:21:17;;;;;;;;;1.00;1.00;;;;;;;;5012782;28;9019;-87
2021/08/05 15:23:44;;;;;;;;;2.40;2.00;;;;;;;;5026624;28;8869;-88
2021/08/05 15:26:13;;;;;;;;;2.40;2.00;;;;;;;;5025698;28;8910;-90
2021/08/05 15:28:41;;;;;;;;;2.40;2.40;;;;;;;;5009310;28;8903;-86
2021/08/05 15:31:08;;;;;;;;;2.00;2.00;;;;;;;;5024474;28;8821;-87
2021/08/05 15:33:35;;;;;;;;;1.20;1.20;;;;;;;;5025813;28;8869;-87
2021/08/05 15:36:02;;;;;;;;;1.60;1.60;;;;;;;;5026218;28;8845;-86
2021/08/05 15:38:30;;;;;;;;;2.00;2.00;;;;;;;;5042290;28;8880;-87
2021/08/05 15:40:58;;;;;;;;;1.60;1.60;;;;;;;;5026260;28;8853;-87
2021/08/05 15:43:26;;;;;;;;;1.20;1.20;;;;;;;;5024957;28;8927;-86
2021/08/05 15:45:53;;;;;;;;;1.60;1.60;;;;;;;;5005245;28;8893;-86
2021/08/05 15:48:21;;;;;;;;;1.20;1.20;;;;;;;;5018525;28;8991;-87
2021/08/05 15:50:48;;;;;;;;;2.60;1.80;;;;;;;;5008879;28;8975;-86
2021/08/05 15:53:15;;;;;;;;;5.80;2.40;;;;;;;;5025391;28;8860;-86
2021/08/05 15:55:43;;;;;;;;;1.60;1.60;;;;;;;;5025141;28;8965;-86